createdAt,value
2023-03-02T00:01:47.394Z,1.08
2023-03-02T00:04:32.124Z,1.17
2023-03-02T00:07:03.347Z,0.95
2023-03-02T00:09:30.983Z,1.30
2023-03-02T00:11:58.314Z,1.00
2023-03-02T00:14:25.635Z,1.38
2023-03-02T00:16:54.863Z,2.35
2023-03-02T00:19:22.052Z,1.35
2023-03-02T00:21:49.174Z,0.88
2023-03-02T00:24:16.410Z,0.80
2023-03-02T00:26:43.817Z,0.80
2023-03-02T00:29:11.538Z,0.88
2023-03-02T00:31:38.997Z,0.93
2023-03-02T00:34:06.219Z,0.70
2023-03-02T00:36:33.390Z,0.93
2023-03-02T00:39:00.589Z,1.00
2023-03-02T00:41:27.846Z,0.93
2023-03-02T00:43:55.233Z,0.70
2023-03-02T00:46:24.580Z,0.70
2023-03-02T00:48:52.807Z,0.73
2023-03-02T00:51:20.710Z,0.80
2023-03-02T00:53:47.994Z,1.00
2023-03-02T00:56:15.311Z,1.00
2023-03-02T00:58:47.802Z,1.00
2023-03-02T01:01:17.657Z,1.20
2023-03-02T01:03:48.644Z,0.93
2023-03-02T01:06:18.216Z,0.80
2023-03-02T01:08:45.621Z,0.80
2023-03-02T01:11:17.927Z,0.90
2023-03-02T01:13:45.542Z,0.75
2023-03-02T01:16:13.155Z,0.80
2023-03-02T01:18:41.175Z,0.80
2023-03-02T01:21:11.908Z,0.70
2023-03-02T01:23:39.191Z,0.93
2023-03-02T01:26:06.681Z,0.80
2023-03-02T01:28:33.928Z,0.73
2023-03-02T01:31:02.873Z,0.90
2023-03-02T01:33:30.550Z,0.70
2023-03-02T01:35:57.627Z,0.70
2023-03-02T01:38:24.771Z,0.70
2023-03-02T01:40:52.097Z,0.80
2023-03-02T01:43:19.248Z,0.70
2023-03-02T01:45:53.874Z,0.73
2023-03-02T01:48:52.835Z,0.60
2023-03-02T01:51:30.848Z,0.77
2023-03-02T01:54:04.923Z,0.60
2023-03-02T01:56:37.348Z,1.00
2023-03-02T01:59:09.724Z,1.00
2023-03-02T02:01:39.986Z,1.10
2023-03-02T02:04:07.784Z,0.90
2023-03-02T02:06:37.788Z,0.88
2023-03-02T02:09:11.161Z,0.90
2023-03-02T02:11:38.591Z,1.05
2023-03-02T02:14:06.726Z,0.90
2023-03-02T02:16:35.903Z,1.00
2023-03-02T02:19:08.521Z,1.05
2023-03-02T02:21:36.471Z,0.90
2023-03-02T02:24:09.352Z,1.00
2023-03-02T02:26:49.269Z,1.00
2023-03-02T02:29:24.479Z,1.23
2023-03-02T02:31:57.878Z,0.98
2023-03-02T02:34:33.208Z,1.25
2023-03-02T02:37:15.825Z,1.20
2023-03-02T02:39:47.167Z,1.20
2023-03-02T02:42:22.165Z,1.30
2023-03-02T02:44:50.230Z,1.17
2023-03-02T02:47:24.067Z,1.08
2023-03-02T02:49:55.215Z,1.17
2023-03-02T02:52:26.563Z,1.50
2023-03-02T02:54:56.875Z,1.33
2023-03-02T02:57:28.584Z,1.35
2023-03-02T02:59:59.448Z,1.45
2023-03-02T03:02:31.065Z,1.10
2023-03-02T03:05:02.958Z,1.15
2023-03-02T03:07:33.386Z,1.15
2023-03-02T03:10:40.212Z,1.30
2023-03-02T03:13:12.605Z,1.00
2023-03-02T03:15:39.842Z,1.25
2023-03-02T03:18:08.339Z,1.27
2023-03-02T03:20:35.593Z,1.27
2023-03-02T03:23:02.710Z,1.77
2023-03-02T03:25:35.120Z,1.40
2023-03-02T03:28:04.179Z,1.05
2023-03-02T03:30:32.470Z,1.10
2023-03-02T03:32:59.882Z,1.38
2023-03-02T03:35:27.062Z,1.67
2023-03-02T03:37:55.064Z,1.50
2023-03-02T03:40:22.599Z,1.42
2023-03-02T03:42:49.911Z,1.30
2023-03-02T03:45:17.091Z,1.38
2023-03-02T03:47:44.988Z,0.85
2023-03-02T03:50:12.606Z,1.10
2023-03-02T03:52:40.804Z,1.00
2023-03-02T03:55:34.270Z,1.65
2023-03-02T03:58:01.390Z,1.10
2023-03-02T04:00:29.580Z,1.42
2023-03-02T04:05:32.076Z,1.08
2023-03-02T04:08:02.460Z,1.35
2023-03-02T04:10:31.157Z,1.50
2023-03-02T04:12:58.642Z,1.40
2023-03-02T04:15:26.076Z,1.40
2023-03-02T04:17:53.952Z,1.50
2023-03-02T04:20:24.277Z,1.35
2023-03-02T04:22:55.639Z,1.25
2023-03-02T04:25:25.154Z,1.50
2023-03-02T04:27:55.757Z,1.30
2023-03-02T04:30:27.179Z,1.40
2023-03-02T04:32:57.587Z,1.63
2023-03-02T04:35:27.382Z,1.80
2023-03-02T04:37:54.934Z,2.10
2023-03-02T04:40:22.253Z,2.05
2023-03-02T04:42:49.357Z,3.45
2023-03-02T04:45:19.246Z,2.92
2023-03-02T04:47:46.523Z,2.20
2023-03-02T04:50:14.879Z,1.70
2023-03-02T04:52:42.345Z,1.40
2023-03-02T04:55:10.076Z,1.45
2023-03-02T04:57:37.247Z,1.65
2023-03-02T05:00:05.257Z,1.85
2023-03-02T05:02:33.614Z,1.65
2023-03-02T05:05:00.956Z,1.52
2023-03-02T05:07:28.155Z,1.50
2023-03-02T05:09:55.157Z,1.20
2023-03-02T05:12:22.334Z,1.65
2023-03-02T05:14:49.378Z,2.17
2023-03-02T05:17:16.573Z,2.05
2023-03-02T05:19:43.562Z,2.20
2023-03-02T05:22:10.638Z,2.75
2023-03-02T05:24:38.190Z,2.47
2023-03-02T05:27:05.253Z,2.70
2023-03-02T05:29:32.299Z,1.80
2023-03-02T05:31:59.495Z,1.58
2023-03-02T05:34:26.499Z,1.90
2023-03-02T05:36:53.687Z,2.22
2023-03-02T05:39:20.880Z,2.28
2023-03-02T05:41:48.339Z,2.40
2023-03-02T05:44:15.337Z,1.85
2023-03-02T05:46:42.450Z,1.85
2023-03-02T05:49:10.799Z,1.80
2023-03-02T05:51:37.800Z,1.52
2023-03-02T05:54:04.881Z,1.80
2023-03-02T05:56:32.409Z,1.80
2023-03-02T05:58:59.766Z,2.00
2023-03-02T06:01:26.821Z,1.88
2023-03-02T06:03:53.934Z,2.03
2023-03-02T06:06:20.940Z,1.85
2023-03-02T06:08:47.982Z,1.85
2023-03-02T06:11:15.360Z,1.70
2023-03-02T06:13:42.516Z,2.13
2023-03-02T06:16:10.147Z,1.92
2023-03-02T06:18:40.366Z,2.38
2023-03-02T06:21:08.622Z,2.05
2023-03-02T06:23:36.052Z,2.30
2023-03-02T06:26:09.057Z,2.35
2023-03-02T06:28:49.772Z,3.00
2023-03-02T06:31:19.034Z,2.30
2023-03-02T06:33:46.196Z,1.90
2023-03-02T06:36:15.263Z,2.03
2023-03-02T06:38:42.410Z,2.10
2023-03-02T06:41:09.444Z,2.08
2023-03-02T06:43:36.868Z,1.98
2023-03-02T06:46:04.314Z,2.67
2023-03-02T06:48:31.632Z,1.90
2023-03-02T06:50:58.799Z,2.03
2023-03-02T06:53:25.957Z,2.33
2023-03-02T06:55:53.139Z,1.98
2023-03-02T06:58:20.150Z,1.85
2023-03-02T07:00:47.376Z,2.17
2023-03-02T07:03:14.517Z,1.70
2023-03-02T07:05:42.439Z,1.95
2023-03-02T07:08:10.806Z,1.70
2023-03-02T07:10:38.382Z,1.92
2023-03-02T07:13:06.419Z,2.00
2023-03-02T07:15:35.309Z,1.75
2023-03-02T07:18:02.316Z,2.13
2023-03-02T07:20:29.493Z,1.73
2023-03-02T07:22:57.649Z,1.77
2023-03-02T07:25:24.747Z,1.90
2023-03-02T07:27:51.806Z,2.10
2023-03-02T07:30:22.101Z,2.50
2023-03-02T07:32:50.188Z,1.75
2023-03-02T07:35:18.061Z,1.98
2023-03-02T07:37:45.307Z,1.70
2023-03-02T07:40:13.901Z,1.08
2023-03-02T07:42:41.249Z,1.17
2023-03-02T07:45:08.975Z,1.30
2023-03-02T07:47:37.627Z,1.33
2023-03-02T07:50:05.682Z,1.48
2023-03-02T07:52:32.735Z,1.35
2023-03-02T07:55:00.827Z,1.60
2023-03-02T07:57:27.955Z,1.52
2023-03-02T07:59:54.982Z,1.33
2023-03-02T08:02:22.171Z,1.40
2023-03-02T08:04:49.435Z,1.48
2023-03-02T08:07:16.696Z,4.05
2023-03-02T08:09:43.822Z,1.85
2023-03-02T08:12:11.099Z,1.15
2023-03-02T08:14:38.465Z,1.30
2023-03-02T08:17:08.418Z,1.67
2023-03-02T08:19:37.090Z,1.80
2023-03-02T08:22:04.279Z,1.90
2023-03-02T08:24:31.448Z,1.95
2023-03-02T08:27:03.388Z,1.65
2023-03-02T08:29:30.761Z,1.63
2023-03-02T08:31:59.173Z,1.60
2023-03-02T08:34:26.785Z,1.80
2023-03-02T08:36:54.342Z,2.15
2023-03-02T08:39:23.927Z,2.08
2023-03-02T08:41:54.293Z,2.70
2023-03-02T08:44:22.382Z,1.92
2023-03-02T08:46:53.435Z,1.67
2023-03-02T08:49:20.855Z,2.10
2023-03-02T08:51:53.568Z,1.73
2023-03-02T08:54:21.597Z,2.53
2023-03-02T08:56:49.648Z,1.55
2023-03-02T08:59:17.464Z,1.88
2023-03-02T09:01:44.825Z,2.10
2023-03-02T09:04:12.415Z,1.80
2023-03-02T09:06:41.839Z,1.70
2023-03-02T09:09:10.464Z,1.60
2023-03-02T09:11:38.066Z,1.60
2023-03-02T09:14:05.576Z,1.70
2023-03-02T09:16:32.792Z,2.00
2023-03-02T09:18:59.826Z,1.58
2023-03-02T09:21:26.907Z,1.92
2023-03-02T09:23:55.995Z,1.50
2023-03-02T09:26:23.340Z,1.40
2023-03-02T09:28:50.649Z,1.65
2023-03-02T09:31:17.761Z,1.90
2023-03-02T09:33:45.145Z,1.67
2023-03-02T09:36:18.605Z,1.17
2023-03-02T09:38:45.956Z,1.38
2023-03-02T09:41:26.561Z,1.30
2023-03-02T09:44:12.479Z,1.40
2023-03-02T09:46:56.460Z,1.20
2023-03-02T09:49:41.790Z,1.40
2023-03-02T09:52:27.347Z,1.30
2023-03-02T09:54:55.128Z,1.98
2023-03-02T09:57:26.858Z,1.70
2023-03-02T10:00:18.151Z,1.48
2023-03-02T10:02:54.465Z,1.60
2023-03-02T10:05:42.092Z,1.73
2023-03-02T10:08:27.393Z,1.30
2023-03-02T10:11:13.078Z,1.33
2023-03-02T10:13:42.412Z,1.75
2023-03-02T10:16:27.775Z,1.98
2023-03-02T10:19:08.053Z,1.55
2023-03-02T10:21:47.640Z,1.70
2023-03-02T10:24:56.477Z,1.33
2023-03-02T10:27:42.648Z,1.60
2023-03-02T10:30:18.231Z,1.30
2023-03-02T10:32:50.780Z,1.38
2023-03-02T10:35:24.475Z,1.98
2023-03-02T10:38:00.317Z,1.98
2023-03-02T10:40:41.869Z,1.40
2023-03-02T10:43:23.408Z,1.50
2023-03-02T10:46:10.810Z,1.55
2023-03-02T10:48:56.877Z,1.40
2023-03-02T10:51:26.964Z,1.50
2023-03-02T10:54:10.636Z,1.65
2023-03-02T10:56:38.621Z,1.35
2023-03-02T10:59:30.569Z,1.33
2023-03-02T11:02:16.099Z,1.80
2023-03-02T11:04:43.638Z,1.60
2023-03-02T11:07:22.554Z,1.73
2023-03-02T11:10:19.487Z,2.10
2023-03-02T11:12:48.511Z,1.48
2023-03-02T11:15:33.802Z,1.60
2023-03-02T11:18:33.395Z,1.65
2023-03-02T11:21:12.962Z,1.58
2023-03-02T11:23:58.041Z,2.25
2023-03-02T11:26:28.901Z,2.15
2023-03-02T11:29:04.067Z,1.50
2023-03-02T11:31:47.468Z,1.20
2023-03-02T11:37:14.640Z,1.85
2023-03-02T11:39:55.073Z,1.38
2023-03-02T11:42:38.269Z,1.60
2023-03-02T11:45:19.984Z,1.98
2023-03-02T11:48:24.206Z,1.25
2023-03-02T11:51:04.708Z,1.17
2023-03-02T11:53:57.737Z,1.50
2023-03-02T11:56:26.796Z,1.25
2023-03-02T11:58:59.355Z,1.38
2023-03-02T12:01:27.996Z,1.35
2023-03-02T12:06:42.214Z,1.80
2023-03-02T12:09:30.982Z,1.30
2023-03-02T12:12:15.015Z,1.48
2023-03-02T12:14:43.714Z,1.20
2023-03-02T12:17:32.333Z,1.23
2023-03-02T12:20:08.590Z,2.13
2023-03-02T12:22:37.825Z,1.30
2023-03-02T12:25:19.944Z,1.00
2023-03-02T12:27:49.825Z,1.30
2023-03-02T12:30:24.011Z,1.50
2023-03-02T12:33:12.202Z,1.13
2023-03-02T12:35:39.441Z,1.50
2023-03-02T12:38:18.328Z,1.60
2023-03-02T12:41:00.494Z,1.92
2023-03-02T12:43:37.846Z,1.25
2023-03-02T12:46:32.216Z,1.63
2023-03-02T12:49:26.276Z,1.63
2023-03-02T12:52:17.820Z,1.58
2023-03-02T12:54:45.112Z,1.58
2023-03-02T12:57:20.197Z,1.20
2023-03-02T12:59:59.518Z,1.80
2023-03-02T13:02:32.559Z,1.63
2023-03-02T13:05:07.682Z,1.73
2023-03-02T13:07:42.589Z,1.48
2023-03-02T13:10:37.881Z,1.48
2023-03-02T13:13:34.830Z,1.30
2023-03-02T13:16:05.899Z,1.02
2023-03-02T13:18:35.791Z,1.20
2023-03-02T13:21:04.852Z,1.25
2023-03-02T13:23:33.870Z,1.17
2023-03-02T13:26:03.014Z,1.70
2023-03-02T13:28:38.497Z,1.17
2023-03-02T13:31:18.197Z,1.50
2023-03-02T13:33:48.126Z,1.20
2023-03-02T13:36:20.731Z,1.30
2023-03-02T13:38:53.695Z,1.38
2023-03-02T13:41:25.835Z,1.42
2023-03-02T13:43:54.247Z,1.30
2023-03-02T13:46:23.265Z,1.23
2023-03-02T13:49:11.778Z,1.40
2023-03-02T13:51:45.523Z,1.23
2023-03-02T13:54:28.784Z,1.38
2023-03-02T13:56:58.783Z,1.80
2023-03-02T13:59:26.427Z,1.75
2023-03-02T14:01:53.523Z,1.40
2023-03-02T14:04:25.344Z,1.58
2023-03-02T14:06:54.199Z,1.58
2023-03-02T14:09:21.423Z,1.40
2023-03-02T14:11:52.178Z,1.30
2023-03-02T14:14:25.040Z,1.20
2023-03-02T14:16:52.575Z,1.35
2023-03-02T14:19:20.378Z,1.00
2023-03-02T14:21:48.205Z,1.00
2023-03-02T14:24:15.668Z,1.38
2023-03-02T14:26:48.745Z,1.50
2023-03-02T14:32:06.799Z,1.20
2023-03-02T14:37:11.980Z,1.10
2023-03-02T14:39:40.470Z,1.35
2023-03-02T14:42:13.777Z,0.90
2023-03-02T14:44:42.429Z,1.20
2023-03-02T14:47:10.596Z,1.30
2023-03-02T14:49:38.414Z,1.17
2023-03-02T14:52:33.178Z,1.48
2023-03-02T14:55:05.419Z,1.15
2023-03-02T14:57:37.969Z,1.00
2023-03-02T15:00:07.700Z,0.90
2023-03-02T15:02:34.989Z,1.15
2023-03-02T15:05:02.298Z,0.95
2023-03-02T15:07:29.622Z,1.67
2023-03-02T15:09:58.006Z,1.13
2023-03-02T15:12:25.226Z,1.23
2023-03-02T15:14:52.561Z,1.80
2023-03-02T15:17:20.027Z,1.80
2023-03-02T15:19:47.791Z,1.92
2023-03-02T15:22:15.018Z,2.45
2023-03-02T15:24:42.175Z,2.22
2023-03-02T15:27:09.332Z,2.00
2023-03-02T15:29:36.438Z,2.15
2023-03-02T15:32:03.811Z,2.50
2023-03-02T15:34:31.133Z,3.60
2023-03-02T15:36:58.335Z,3.03
2023-03-02T15:39:25.566Z,2.97
2023-03-02T15:41:53.934Z,2.33
2023-03-02T15:44:24.138Z,2.40
2023-03-02T15:46:54.277Z,2.30
2023-03-02T15:49:24.624Z,2.80
2023-03-02T15:51:52.265Z,1.90
2023-03-02T15:54:19.497Z,2.28
2023-03-02T15:56:53.220Z,2.13
2023-03-02T15:59:25.259Z,2.15
2023-03-02T16:01:53.153Z,1.70
2023-03-02T16:04:20.317Z,2.20
2023-03-02T16:06:47.407Z,1.98
2023-03-02T16:09:14.566Z,1.90
2023-03-02T16:11:41.568Z,2.53
2023-03-02T16:14:08.646Z,2.17
2023-03-02T16:16:36.331Z,2.13
2023-03-02T16:19:03.495Z,2.53
2023-03-02T16:21:30.690Z,2.67
2023-03-02T16:24:03.922Z,2.30
2023-03-02T16:29:01.298Z,2.55
2023-03-02T16:31:29.381Z,2.88
2023-03-02T16:33:57.800Z,2.55
2023-03-02T16:36:26.195Z,2.58
2023-03-02T16:38:54.919Z,3.00
2023-03-02T16:41:23.837Z,4.10
2023-03-02T16:43:57.336Z,3.30
2023-03-02T16:46:27.313Z,3.58
2023-03-02T16:48:54.732Z,3.55
2023-03-02T16:51:22.219Z,3.08
2023-03-02T16:53:49.636Z,3.40
2023-03-02T16:56:16.716Z,4.13
2023-03-02T16:58:43.944Z,3.63
2023-03-02T17:01:17.927Z,3.72
2023-03-02T17:03:46.801Z,3.47
2023-03-02T17:06:17.410Z,3.83
2023-03-02T17:08:44.675Z,3.33
2023-03-02T17:11:11.947Z,3.47
2023-03-02T17:13:39.339Z,3.20
2023-03-02T17:16:06.814Z,4.22
2023-03-02T17:18:34.182Z,4.07
2023-03-02T17:21:01.472Z,3.97
2023-03-02T17:23:31.397Z,4.00
2023-03-02T17:25:58.963Z,3.88
2023-03-02T17:28:26.164Z,3.50
2023-03-02T17:30:53.360Z,3.15
2023-03-02T17:33:20.906Z,3.08
2023-03-02T17:35:48.238Z,3.38
2023-03-02T17:38:16.183Z,3.30
2023-03-02T17:40:43.742Z,3.33
2023-03-02T17:43:12.739Z,3.75
2023-03-02T17:45:40.273Z,3.67
2023-03-02T17:48:07.540Z,3.13
2023-03-02T17:50:35.049Z,3.95
2023-03-02T17:53:03.194Z,4.13
2023-03-02T17:55:30.607Z,3.63
2023-03-02T17:57:58.064Z,3.55
2023-03-02T18:00:25.559Z,2.97
2023-03-02T18:02:53.860Z,3.47
2023-03-02T18:05:22.035Z,3.00
2023-03-02T18:07:49.272Z,3.15
2023-03-02T18:10:16.705Z,3.72
2023-03-02T18:12:43.852Z,3.00
2023-03-02T18:15:12.916Z,3.78
2023-03-02T18:17:40.498Z,3.60
2023-03-02T18:20:10.144Z,3.75
2023-03-02T18:22:38.090Z,2.88
2023-03-02T18:25:06.022Z,3.08
2023-03-02T18:27:33.446Z,3.40
2023-03-02T18:30:00.541Z,3.17
2023-03-02T18:32:28.097Z,3.40
2023-03-02T18:34:55.364Z,3.13
2023-03-02T18:37:22.584Z,2.90
2023-03-02T18:39:49.745Z,3.17
2023-03-02T18:42:17.099Z,3.15
2023-03-02T18:44:44.139Z,3.22
2023-03-02T18:47:16.704Z,2.80
2023-03-02T18:49:44.801Z,3.72
2023-03-02T18:52:12.188Z,3.15
2023-03-02T18:54:39.749Z,3.10
2023-03-02T18:57:09.036Z,2.80
2023-03-02T18:59:37.515Z,2.78
2023-03-02T19:02:10.312Z,3.05
2023-03-02T19:04:37.526Z,2.70
2023-03-02T19:07:07.026Z,3.65
2023-03-02T19:09:34.765Z,3.45
2023-03-02T19:12:02.014Z,4.47
2023-03-02T19:14:29.742Z,3.17
2023-03-02T19:16:56.870Z,4.03
2023-03-02T19:19:23.959Z,3.03
2023-03-02T19:21:51.225Z,3.75
2023-03-02T19:24:18.400Z,4.03
2023-03-02T19:26:46.118Z,3.60
2023-03-02T19:29:13.300Z,3.30
2023-03-02T19:31:40.635Z,3.20
2023-03-02T19:34:08.026Z,3.55
2023-03-02T19:36:34.982Z,3.47
2023-03-02T19:39:02.194Z,3.45
2023-03-02T19:41:29.344Z,3.38
2023-03-02T19:43:57.145Z,3.78
2023-03-02T19:46:24.755Z,3.50
2023-03-02T19:48:51.800Z,4.85
2023-03-02T19:51:18.942Z,4.47
2023-03-02T19:53:47.237Z,4.13
2023-03-02T19:56:15.670Z,4.22
2023-03-02T19:58:48.071Z,3.95
2023-03-02T20:01:24.795Z,3.90
2023-03-02T20:03:53.152Z,3.45
2023-03-02T20:06:23.031Z,3.17
2023-03-02T20:08:51.753Z,3.40
2023-03-02T20:11:19.354Z,3.60
2023-03-02T20:13:46.507Z,4.47
2023-03-02T20:16:14.608Z,3.63
2023-03-02T20:18:42.400Z,4.72
2023-03-02T20:21:09.660Z,4.10
2023-03-02T20:23:38.567Z,3.80
2023-03-02T20:26:06.256Z,4.95
2023-03-02T20:28:34.109Z,4.38
2023-03-02T20:31:07.462Z,4.35
2023-03-02T20:36:05.048Z,5.47
2023-03-02T20:38:36.729Z,4.60
2023-03-02T20:41:06.717Z,5.30
2023-03-02T20:43:34.933Z,5.03
2023-03-02T20:46:04.530Z,5.43
2023-03-02T20:48:39.435Z,5.13
2023-03-02T20:51:07.414Z,5.25
2023-03-02T20:53:35.506Z,5.72
2023-03-02T20:56:03.306Z,5.47
2023-03-02T20:58:30.905Z,5.85
2023-03-02T21:01:00.768Z,5.40
2023-03-02T21:03:28.650Z,6.30
2023-03-02T21:05:56.867Z,5.97
2023-03-02T21:08:25.458Z,6.47
2023-03-02T21:10:52.913Z,6.90
2023-03-02T21:13:22.665Z,6.50
2023-03-02T21:15:50.603Z,7.05
2023-03-02T21:18:18.055Z,7.38
2023-03-02T21:20:45.443Z,6.43
2023-03-02T21:23:12.958Z,7.93
2023-03-02T21:25:42.292Z,6.60
2023-03-02T21:28:10.045Z,6.32
2023-03-02T21:30:37.548Z,5.82
2023-03-02T21:33:04.900Z,6.55
2023-03-02T21:35:32.049Z,6.28
2023-03-02T21:38:04.946Z,6.10
2023-03-02T21:40:36.230Z,5.75
2023-03-02T21:43:05.627Z,6.38
2023-03-02T21:45:33.797Z,5.65
2023-03-02T21:48:00.934Z,5.85
2023-03-02T21:50:32.185Z,6.05
2023-03-02T21:52:59.493Z,5.95
2023-03-02T21:55:27.832Z,5.88
2023-03-02T21:57:55.819Z,5.90
2023-03-02T22:00:30.240Z,6.03
2023-03-02T22:02:57.451Z,5.93
2023-03-02T22:05:24.645Z,5.72
2023-03-02T22:07:52.153Z,5.85
2023-03-02T22:10:25.856Z,5.00
2023-03-02T22:13:01.016Z,5.20
2023-03-02T22:15:28.305Z,5.20
2023-03-02T22:17:56.680Z,5.40
2023-03-02T22:20:23.882Z,5.50
2023-03-02T22:22:53.755Z,5.88
2023-03-02T22:25:21.084Z,5.72
2023-03-02T22:27:48.233Z,5.35
2023-03-02T22:30:23.797Z,6.35
2023-03-02T22:32:50.818Z,6.28
2023-03-02T22:35:24.881Z,6.70
2023-03-02T22:38:01.813Z,7.07
2023-03-02T22:40:34.107Z,7.28
2023-03-02T22:43:13.435Z,7.63
2023-03-02T22:45:41.408Z,7.60
2023-03-02T22:48:15.891Z,6.80
2023-03-02T22:50:47.473Z,6.88
2023-03-02T22:53:37.754Z,7.15
2023-03-02T22:56:31.206Z,7.03
2023-03-02T22:59:30.363Z,6.10
2023-03-02T23:02:02.923Z,6.03
2023-03-02T23:04:38.113Z,5.90
2023-03-02T23:07:19.577Z,5.85
2023-03-02T23:09:47.255Z,6.13
2023-03-02T23:12:23.184Z,6.30
2023-03-02T23:14:58.361Z,6.03
2023-03-02T23:17:25.501Z,5.50
2023-03-02T23:19:53.013Z,5.60
2023-03-02T23:22:20.168Z,4.85
2023-03-02T23:24:47.449Z,6.15
2023-03-02T23:27:14.663Z,4.85
2023-03-02T23:29:41.798Z,5.82
2023-03-02T23:32:09.746Z,5.03
2023-03-02T23:34:36.808Z,5.40
2023-03-02T23:37:04.019Z,5.22
2023-03-02T23:39:31.342Z,5.53
2023-03-02T23:41:58.501Z,5.50
2023-03-02T23:44:25.698Z,5.35
2023-03-02T23:46:53.039Z,5.30
2023-03-02T23:49:20.363Z,5.90
2023-03-02T23:51:47.658Z,5.80
2023-03-02T23:54:14.843Z,5.20
2023-03-02T23:56:41.870Z,5.00
2023-03-02T23:59:09.106Z,5.07
